Time;durP1;ratioP1;P1;durP2;ratioP2;P2;SDS_P1;SDS_P2;PMS_P1;PMS_P2;Temp;Humidity;BMP_temperature;BMP_pressure;BME280_temperature;BME280_humidity;BME280_pressure;Samples;Min_cycle;Max_cycle;Signal;HPM_P1;HPM_P2
2022/05/16 00:00:58;;;;;;;12.63;4.22;;;13.10;99.90;;;;;;5089285;28;20517;-68
2022/05/16 00:03:24;;;;;;;12.07;4.57;;;13.10;99.90;;;;;;5089885;28;20392;-66
2022/05/16 00:05:51;;;;;;;12.05;4.55;;;13.10;99.90;;;;;;5071406;28;20113;-68
2022/05/16 00:08:16;;;;;;;11.15;4.43;;;13.10;99.90;;;;;;5090060;28;20399;-66
2022/05/16 00:10:42;;;;;;;10.93;4.13;;;13.10;99.90;;;;;;5089748;28;20052;-67
2022/05/16 00:13:08;;;;;;;14.88;4.97;;;13.20;99.90;;;;;;5089722;28;20087;-67
2022/05/16 00:15:34;;;;;;;10.60;4.20;;;13.10;99.90;;;;;;5089615;28;20071;-68
2022/05/16 00:18:01;;;;;;;9.52;4.32;;;13.10;99.90;;;;;;5089616;28;20127;-69
2022/05/16 00:20:26;;;;;;;12.82;4.80;;;13.10;99.90;;;;;;5072288;28;20052;-68
2022/05/16 00:22:52;;;;;;;10.38;3.88;;;13.10;99.90;;;;;;5093179;28;20044;-67
2022/05/16 00:25:18;;;;;;;15.40;4.40;;;13.10;99.90;;;;;;5074986;28;20448;-66
2022/05/16 00:27:45;;;;;;;12.13;4.00;;;13.10;99.90;;;;;;5093438;28;20040;-67
2022/05/16 00:30:13;;;;;;;10.52;4.05;;;13.10;99.90;;;;;;5093259;28;20048;-66
2022/05/16 00:32:39;;;;;;;15.05;4.53;;;13.00;99.90;;;;;;5092969;28;20047;-66
2022/05/16 00:35:07;;;;;;;10.95;4.13;;;13.00;99.90;;;;;;5074902;28;20051;-69
2022/05/16 00:37:33;;;;;;;9.82;4.40;;;13.00;99.90;;;;;;5093014;28;20039;-67
2022/05/16 00:39:59;;;;;;;12.48;4.32;;;13.00;99.90;;;;;;5074947;28;20036;-70
2022/05/16 00:42:24;;;;;;;11.68;4.40;;;13.00;99.90;;;;;;5074159;28;20052;-66
2022/05/16 00:44:50;;;;;;;11.15;3.80;;;13.00;99.90;;;;;;5092950;28;20048;-70
2022/05/16 00:47:16;;;;;;;13.77;4.05;;;13.10;99.90;;;;;;5092798;28;20407;-69
2022/05/16 00:49:46;;;;;;;11.90;3.92;;;12.90;99.90;;;;;;5093037;28;20449;-71
2022/05/16 00:52:27;;;;;;;11.13;3.75;;;13.00;99.90;;;;;;5092601;28;20044;-69
2022/05/16 00:55:00;;;;;;;9.93;3.85;;;12.90;99.90;;;;;;5074762;28;20048;-69
2022/05/16 00:57:35;;;;;;;12.85;4.45;;;12.90;99.90;;;;;;5092790;28;20116;-68
2022/05/16 01:00:15;;;;;;;14.43;4.20;;;12.90;99.90;;;;;;5092665;28;20070;-72
2022/05/16 01:05:30;;;;;;;11.52;3.90;;;12.90;99.90;;;;;;5092747;28;20139;-68
2022/05/16 01:08:00;;;;;;;9.82;3.90;;;12.90;99.90;;;;;;5092468;28;20123;-67
2022/05/16 01:10:26;;;;;;;9.32;3.55;;;12.90;99.90;;;;;;5092525;28;20055;-67
2022/05/16 01:12:53;;;;;;;9.07;3.83;;;12.90;99.90;;;;;;5092410;28;20036;-67
2022/05/16 01:15:36;;;;;;;9.02;3.65;;;12.80;99.90;;;;;;5074716;28;20411;-67
2022/05/16 01:18:05;;;;;;;10.90;4.10;;;13.00;99.90;;;;;;5092021;28;20086;-67
2022/05/16 01:20:53;;;;;;;12.38;4.10;;;12.70;99.90;;;;;;5074023;28;20126;-66
2022/05/16 01:23:22;;;;;;;9.68;3.70;;;12.80;99.90;;;;;;5092315;28;20056;-67
2022/05/16 01:25:50;;;;;;;7.90;3.92;;;12.80;99.90;;;;;;5092048;28;20044;-66
2022/05/16 01:28:22;;;;;;;8.13;3.75;;;12.80;99.90;;;;;;5092392;28;20125;-68
2022/05/16 01:30:48;;;;;;;9.70;3.83;;;12.70;99.90;;;;;;5092297;28;20048;-67
2022/05/16 01:33:14;;;;;;;11.50;3.72;;;12.70;99.90;;;;;;5091669;28;20047;-66
2022/05/16 01:35:40;;;;;;;7.05;3.13;;;12.70;99.90;;;;;;5091732;28;20052;-68
2022/05/16 01:38:26;;;;;;;10.52;4.18;;;12.70;99.90;;;;;;5091792;28;20051;-68
2022/05/16 01:41:00;;;;;;;8.90;3.78;;;12.60;99.90;;;;;;5092029;28;20048;-68
2022/05/16 01:43:38;;;;;;;11.63;4.00;;;12.60;99.90;;;;;;5091838;28;20479;-67
2022/05/16 01:46:05;;;;;;;9.93;3.90;;;12.60;99.90;;;;;;5091834;28;20402;-67
2022/05/16 01:48:31;;;;;;;9.10;3.33;;;12.60;99.90;;;;;;5091358;28;20087;-66
2022/05/16 01:51:14;;;;;;;10.35;3.72;;;12.60;99.90;;;;;;5091302;28;20072;-68
2022/05/16 01:53:42;;;;;;;7.13;3.50;;;12.50;99.90;;;;;;5073470;28;20048;-68
2022/05/16 01:56:08;;;;;;;15.90;4.50;;;12.50;99.90;;;;;;5091615;28;20483;-67
2022/05/16 01:58:34;;;;;;;9.57;3.40;;;12.50;99.90;;;;;;5091658;28;20051;-67
2022/05/16 02:01:00;;;;;;;8.57;3.30;;;12.50;99.90;;;;;;5091575;28;20447;-66
2022/05/16 02:03:25;;;;;;;7.88;3.10;;;12.50;99.90;;;;;;5091376;28;20150;-65
2022/05/16 02:05:51;;;;;;;12.23;3.78;;;12.50;99.90;;;;;;5091417;28;20130;-66
2022/05/16 02:08:17;;;;;;;16.05;3.88;;;12.50;99.90;;;;;;5091625;28;20048;-66
2022/05/16 02:10:44;;;;;;;9.40;3.30;;;12.50;99.90;;;;;;5091322;28;20055;-68
2022/05/16 02:13:11;;;;;;;9.40;3.50;;;12.50;99.90;;;;;;5091307;28;20040;-65
2022/05/16 02:15:39;;;;;;;8.32;2.90;;;12.50;99.90;;;;;;5091302;28;20119;-68
2022/05/16 02:18:07;;;;;;;10.60;3.42;;;12.40;99.90;;;;;;5091027;28;20142;-67
2022/05/16 02:20:33;;;;;;;7.68;2.47;;;12.50;99.90;;;;;;5090808;28;20048;-68
2022/05/16 02:25:45;;;;;;;10.98;2.78;;;12.50;99.90;;;;;;5073044;28;20058;-65
2022/05/16 02:28:14;;;;;;;12.63;2.88;;;12.50;99.90;;;;;;5072668;28;20247;-66
2022/05/16 02:30:41;;;;;;;7.03;2.58;;;12.40;99.90;;;;;;5090923;28;20044;-67
2022/05/16 02:33:08;;;;;;;7.78;2.80;;;12.50;99.90;;;;;;5090899;28;20140;-67
2022/05/16 02:35:34;;;;;;;6.47;2.45;;;12.40;99.90;;;;;;5090496;28;20479;-66
2022/05/16 02:38:00;;;;;;;5.57;2.45;;;12.40;99.90;;;;;;5090779;28;20040;-66
2022/05/16 02:40:30;;;;;;;8.02;2.10;;;12.40;99.90;;;;;;5090717;28;20495;-68
2022/05/16 02:42:57;;;;;;;6.15;2.38;;;12.40;99.90;;;;;;5071968;28;20090;-66
2022/05/16 02:45:24;;;;;;;5.25;2.33;;;12.40;99.90;;;;;;5090419;28;20044;-67
2022/05/16 02:47:50;;;;;;;6.30;2.30;;;12.40;99.90;;;;;;5090701;28;20040;-66
2022/05/16 02:50:16;;;;;;;6.55;2.22;;;12.40;99.90;;;;;;5090688;28;20043;-66
2022/05/16 02:52:42;;;;;;;7.25;2.35;;;12.40;99.90;;;;;;5072079;28;20138;-67
2022/05/16 02:55:08;;;;;;;6.32;2.00;;;12.30;99.90;;;;;;5055643;28;20154;-66
2022/05/16 02:57:34;;;;;;;9.07;2.03;;;12.30;99.90;;;;;;5090459;28;20055;-66
2022/05/16 03:00:00;;;;;;;5.50;1.90;;;12.30;99.90;;;;;;5072248;28;20044;-68
2022/05/16 03:02:27;;;;;;;5.47;2.13;;;12.30;99.90;;;;;;5072094;28;20052;-66
2022/05/16 03:04:53;;;;;;;5.00;2.08;;;12.60;99.90;;;;;;5090630;28;20505;-67
2022/05/16 03:07:19;;;;;;;7.95;1.98;;;12.30;99.90;;;;;;5090127;28;20048;-66
2022/05/16 03:09:47;;;;;;;5.32;1.70;;;12.30;99.90;;;;;;5090410;28;20131;-66
2022/05/16 03:12:13;;;;;;;7.32;1.83;;;12.30;99.90;;;;;;5090633;28;20055;-65
2022/05/16 03:14:38;;;;;;;5.75;1.92;;;12.20;99.90;;;;;;5090241;28;20051;-66
2022/05/16 03:17:04;;;;;;;4.82;1.67;;;12.20;99.90;;;;;;5071656;28;20052;-67
2022/05/16 03:19:30;;;;;;;8.50;2.25;;;12.20;99.90;;;;;;5090206;28;20047;-66
2022/05/16 03:21:56;;;;;;;6.88;1.90;;;12.20;99.90;;;;;;5090106;28;20040;-66
2022/05/16 03:24:22;;;;;;;10.57;2.10;;;12.20;99.90;;;;;;5072400;28;20489;-66
2022/05/16 03:26:48;;;;;;;5.10;2.13;;;12.20;99.90;;;;;;5090511;28;20040;-67
2022/05/16 03:29:14;;;;;;;7.40;1.80;;;12.20;99.90;;;;;;5090018;28;20051;-70
2022/05/16 03:31:41;;;;;;;5.78;2.10;;;12.20;99.90;;;;;;5072023;28;20055;-69
2022/05/16 03:34:09;;;;;;;7.47;2.30;;;12.10;99.90;;;;;;5090032;28;20495;-67
2022/05/16 03:36:35;;;;;;;8.63;1.80;;;12.10;99.90;;;;;;5090361;28;20090;-68
2022/05/16 03:41:46;;;;;;;10.02;2.75;;;12.10;99.90;;;;;;5090167;28;20052;-68
2022/05/16 03:44:12;;;;;;;3.97;1.73;;;12.10;99.90;;;;;;5090141;28;20106;-68
2022/05/16 03:46:37;;;;;;;6.05;1.80;;;12.00;99.90;;;;;;5071817;28;20460;-67
2022/05/16 03:49:04;;;;;;;6.45;2.05;;;12.00;99.90;;;;;;5090116;28;20048;-69
2022/05/16 03:51:30;;;;;;;6.20;2.28;;;12.00;99.90;;;;;;5072035;28;20102;-66
2022/05/16 03:53:56;;;;;;;8.60;2.00;;;12.00;99.90;;;;;;5089719;28;20589;-67
2022/05/16 03:56:25;;;;;;;5.07;1.90;;;12.20;99.90;;;;;;5092366;28;20044;-67
2022/05/16 03:58:51;;;;;;;7.03;1.88;;;12.00;99.90;;;;;;5093950;28;20662;-67
2022/05/16 04:01:17;;;;;;;6.90;1.83;;;12.00;99.90;;;;;;5093561;28;20056;-67
2022/05/16 04:03:44;;;;;;;10.32;2.40;;;11.90;99.90;;;;;;5093855;28;20162;-70
2022/05/16 04:06:09;;;;;;;6.15;2.10;;;12.00;99.90;;;;;;5093761;28;20054;-67
2022/05/16 04:08:35;;;;;;;6.75;2.05;;;12.10;99.90;;;;;;5093248;28;20127;-68
2022/05/16 04:11:02;;;;;;;5.55;1.70;;;11.90;99.90;;;;;;5075069;28;20135;-69
2022/05/16 04:13:28;;;;;;;6.40;1.75;;;12.00;99.90;;;;;;5093788;28;20454;-68
2022/05/16 04:15:54;;;;;;;7.55;1.88;;;12.00;99.90;;;;;;5093276;28;20132;-67
2022/05/16 04:18:20;;;;;;;5.35;2.03;;;12.00;99.90;;;;;;5093807;28;20048;-67
2022/05/16 04:20:46;;;;;;;5.75;2.00;;;12.00;99.90;;;;;;5075352;28;20044;-67
2022/05/16 04:23:13;;;;;;;8.27;2.08;;;11.90;99.90;;;;;;5093484;28;20048;-69
2022/05/16 04:25:39;;;;;;;7.25;1.95;;;12.00;99.90;;;;;;5093051;28;20123;-67
2022/05/16 04:28:05;;;;;;;7.30;2.08;;;12.20;99.90;;;;;;5075084;28;20131;-68
2022/05/16 04:30:31;;;;;;;7.25;2.00;;;12.00;99.90;;;;;;5074945;28;20491;-68
2022/05/16 04:32:57;;;;;;;3.85;1.77;;;12.00;99.90;;;;;;5093342;28;20058;-67
2022/05/16 04:35:23;;;;;;;6.72;1.90;;;12.10;99.90;;;;;;5093403;28;20399;-67
2022/05/16 04:37:49;;;;;;;6.97;1.70;;;12.10;99.90;;;;;;5093486;28;20040;-68
2022/05/16 04:40:14;;;;;;;5.47;1.75;;;12.30;99.90;;;;;;5092990;28;20040;-67
2022/05/16 04:42:41;;;;;;;7.65;1.98;;;12.30;99.90;;;;;;5074945;28;20047;-68
2022/05/16 04:45:25;;;;;;;4.88;1.60;;;12.20;99.90;;;;;;5074842;28;20040;-70
2022/05/16 04:47:56;;;;;;;5.25;2.20;;;12.20;99.90;;;;;;5093276;28;20252;-70
2022/05/16 04:50:34;;;;;;;9.35;2.38;;;12.20;99.90;;;;;;5093073;28;20052;-67
2022/05/16 04:53:00;;;;;;;9.00;2.20;;;12.20;99.90;;;;;;5092729;28;20176;-67
2022/05/16 04:55:27;;;;;;;4.30;1.90;;;12.30;99.90;;;;;;5092594;28;20509;-71
2022/05/16 04:57:53;;;;;;;5.28;1.92;;;12.30;99.90;;;;;;5092706;28;20411;-67
2022/05/16 05:00:21;;;;;;;4.97;2.00;;;12.30;99.90;;;;;;5092758;28;20485;-68
2022/05/16 05:02:47;;;;;;;6.03;2.03;;;12.40;99.90;;;;;;5092366;28;20067;-67
2022/05/16 05:05:15;;;;;;;8.07;2.10;;;12.40;99.90;;;;;;5092420;28;20051;-67
2022/05/16 05:07:41;;;;;;;6.88;2.30;;;12.50;99.90;;;;;;5091828;28;20471;-68
2022/05/16 05:15:38;;;;;;;4.57;1.90;;;12.60;99.90;;;;;;5092448;28;20048;-68
2022/05/16 05:18:04;;;;;;;10.02;1.95;;;12.70;99.90;;;;;;5092474;28;20048;-67
2022/05/16 05:20:32;;;;;;;8.13;2.40;;;12.80;99.90;;;;;;5092080;28;20040;-68
2022/05/16 05:22:59;;;;;;;7.45;2.20;;;12.80;99.90;;;;;;5091982;28;20111;-67
2022/05/16 05:25:25;;;;;;;7.90;2.08;;;12.80;99.90;;;;;;5091804;28;20493;-69
2022/05/16 05:27:51;;;;;;;6.50;2.25;;;12.80;99.90;;;;;;5092107;28;20086;-66
2022/05/16 05:30:25;;;;;;;8.63;2.25;;;12.90;99.90;;;;;;5073957;28;20047;-66
2022/05/16 05:32:52;;;;;;;11.85;2.40;;;12.90;99.90;;;;;;5073926;28;20048;-66
2022/05/16 05:35:19;;;;;;;5.18;2.05;;;13.20;99.90;;;;;;5091828;28;20043;-66
2022/05/16 05:37:45;;;;;;;5.32;1.77;;;13.00;99.90;;;;;;5091895;28;20152;-67
2022/05/16 05:40:12;;;;;;;7.60;2.33;;;13.10;99.90;;;;;;5092235;28;20135;-66
2022/05/16 05:42:38;;;;;;;6.85;2.28;;;13.10;99.90;;;;;;5073516;28;20040;-68
2022/05/16 05:45:05;;;;;;;5.82;1.95;;;13.10;99.90;;;;;;5073806;28;20119;-66
2022/05/16 05:47:31;;;;;;;9.48;2.10;;;13.10;99.90;;;;;;5073478;28;20048;-66
2022/05/16 05:49:59;;;;;;;7.28;2.42;;;13.20;99.90;;;;;;5091697;28;20105;-67
2022/05/16 05:52:28;;;;;;;8.68;2.40;;;13.10;99.90;;;;;;5057061;28;20044;-66
2022/05/16 05:54:55;;;;;;;8.27;2.40;;;13.20;99.90;;;;;;5073920;28;20583;-66
2022/05/16 05:57:21;;;;;;;6.60;2.20;;;13.20;99.90;;;;;;5091634;28;20044;-67
2022/05/16 05:59:47;;;;;;;9.02;2.22;;;13.40;99.90;;;;;;5091563;28;20513;-67
2022/05/16 06:02:14;;;;;;;8.07;2.17;;;13.40;99.90;;;;;;5091035;28;20064;-67
2022/05/16 06:04:40;;;;;;;9.18;3.08;;;13.50;99.90;;;;;;5073140;28;20052;-68
2022/05/16 06:07:06;;;;;;;6.50;2.33;;;13.50;99.90;;;;;;5091257;28;20047;-66
2022/05/16 06:09:32;;;;;;;8.75;2.45;;;13.60;99.90;;;;;;5091443;28;20040;-68
2022/05/16 06:11:59;;;;;;;5.57;2.30;;;13.60;99.90;;;;;;5091200;28;20043;-67
2022/05/16 06:14:28;;;;;;;6.55;2.72;;;13.70;99.90;;;;;;5091212;28;20526;-68
2022/05/16 06:16:54;;;;;;;5.15;2.20;;;13.90;99.90;;;;;;5091233;28;20036;-71
2022/05/16 06:19:20;;;;;;;9.50;2.67;;;13.90;99.90;;;;;;5090555;28;20084;-66
2022/05/16 06:21:46;;;;;;;5.78;2.30;;;14.10;99.90;;;;;;5090974;28;20059;-70
2022/05/16 06:26:58;;;;;;;6.75;2.17;;;14.30;99.90;;;;;;5091124;28;20048;-69
2022/05/16 06:29:25;;;;;;;6.03;2.33;;;14.50;99.90;;;;;;5072582;28;20384;-67
2022/05/16 06:31:51;;;;;;;9.10;2.42;;;14.60;99.90;;;;;;5090940;28;20048;-68
2022/05/16 06:34:16;;;;;;;9.57;2.67;;;14.70;99.90;;;;;;5090863;28;20048;-70
2022/05/16 06:36:42;;;;;;;5.82;2.45;;;15.00;99.90;;;;;;5072124;28;20113;-70
2022/05/16 06:39:08;;;;;;;9.93;2.50;;;15.00;99.90;;;;;;5090711;28;20100;-71
2022/05/16 06:41:34;;;;;;;9.15;2.33;;;15.10;99.90;;;;;;5090941;28;20036;-68
2022/05/16 06:44:01;;;;;;;7.38;2.25;;;15.30;99.90;;;;;;5090413;28;20047;-68
2022/05/16 06:46:27;;;;;;;8.05;2.22;;;15.50;99.90;;;;;;5090792;28;20051;-69
2022/05/16 06:48:53;;;;;;;7.32;2.65;;;15.70;99.90;;;;;;5090796;28;20040;-68
2022/05/16 06:51:19;;;;;;;7.70;2.35;;;15.90;99.90;;;;;;5055968;28;20052;-68
2022/05/16 06:53:44;;;;;;;7.70;2.63;;;16.10;99.90;;;;;;5072563;28;20051;-68
2022/05/16 06:56:10;;;;;;;12.25;2.53;;;16.20;99.90;;;;;;5091155;28;20047;-68
2022/05/16 06:58:36;;;;;;;16.42;2.80;;;16.40;99.90;;;;;;5072065;28;20052;-67
2022/05/16 07:01:02;;;;;;;6.68;2.53;;;16.70;99.90;;;;;;5072240;28;20048;-67
2022/05/16 07:03:27;;;;;;;11.15;2.95;;;16.90;99.90;;;;;;5090456;28;20052;-68
2022/05/16 07:05:55;;;;;;;7.40;2.85;;;17.00;99.90;;;;;;5090482;28;20054;-68
2022/05/16 07:08:21;;;;;;;10.30;2.75;;;17.20;99.90;;;;;;5090645;28;20403;-68
2022/05/16 07:10:48;;;;;;;9.35;2.80;;;17.20;99.90;;;;;;5090433;28;20047;-68
2022/05/16 07:13:14;;;;;;;7.68;3.03;;;17.30;99.90;;;;;;5072378;28;20054;-67
2022/05/16 07:15:40;;;;;;;8.18;2.80;;;17.50;99.90;;;;;;5071857;28;20403;-67
2022/05/16 07:18:06;;;;;;;9.13;2.42;;;17.70;99.90;;;;;;5090274;28;20046;-73
2022/05/16 07:20:32;;;;;;;8.68;2.20;;;17.80;99.90;;;;;;5090167;28;20127;-67
2022/05/16 07:22:58;;;;;;;7.43;2.42;;;18.10;99.90;;;;;;5090493;28;20052;-69
2022/05/16 07:25:26;;;;;;;11.60;2.70;;;18.00;99.90;;;;;;5072179;28;20040;-69
2022/05/16 07:27:59;;;;;;;6.55;2.53;;;18.30;99.90;;;;;;5072224;28;20048;-69
2022/05/16 07:30:36;;;;;;;10.88;2.60;;;18.40;99.90;;;;;;5092729;28;20066;-70
2022/05/16 07:33:02;;;;;;;9.88;2.72;;;18.60;99.90;;;;;;5075920;28;20570;-67
2022/05/16 07:35:33;;;;;;;7.65;2.33;;;18.60;99.90;;;;;;5076214;28;20056;-68
2022/05/16 07:38:00;;;;;;;9.80;2.70;;;18.70;99.90;;;;;;5075823;28;20059;-67
2022/05/16 07:40:30;;;;;;;8.85;2.33;;;18.90;99.90;;;;;;5094592;28;20055;-67
2022/05/16 07:42:56;;;;;;;12.07;2.92;;;19.10;99.90;;;;;;5094245;28;20090;-69
2022/05/16 07:45:22;;;;;;;12.57;2.67;;;19.30;99.90;;;;;;5094088;28;20079;-67
2022/05/16 07:47:48;;;;;;;8.55;2.70;;;19.30;99.90;;;;;;5094118;28;20051;-69
2022/05/16 07:50:15;;;;;;;11.00;2.60;;;19.60;99.90;;;;;;5094007;28;20083;-68
2022/05/16 07:52:46;;;;;;;7.55;2.25;;;19.80;99.90;;;;;;5094215;28;20075;-68
2022/05/16 07:55:12;;;;;;;8.55;2.60;;;20.10;99.90;;;;;;5059156;28;20487;-69
2022/05/16 07:57:38;;;;;;;7.82;2.40;;;20.30;99.90;;;;;;5094083;28;20119;-69
2022/05/16 08:00:04;;;;;;;7.93;2.40;;;20.40;99.90;;;;;;5093837;28;20055;-67
2022/05/16 08:02:30;;;;;;;8.45;2.20;;;20.80;99.90;;;;;;5093622;28;20056;-68
2022/05/16 08:04:56;;;;;;;5.53;2.17;;;20.90;99.90;;;;;;5093873;28;20056;-67
2022/05/16 08:07:22;;;;;;;11.57;2.38;;;21.00;99.90;;;;;;5094138;28;20402;-67
2022/05/16 08:12:35;;;;;;;9.80;2.60;;;21.20;99.90;;;;;;5093815;28;20499;-69
2022/05/16 08:15:00;;;;;;;9.13;2.20;;;21.30;99.90;;;;;;5093936;28;20048;-69
2022/05/16 08:17:28;;;;;;;13.05;3.25;;;21.40;99.90;;;;;;5093425;28;20047;-71
2022/05/16 08:19:56;;;;;;;9.18;2.65;;;21.40;99.90;;;;;;5075944;28;20059;-69
2022/05/16 08:22:30;;;;;;;7.95;2.30;;;21.60;99.90;;;;;;5093895;28;20059;-68
2022/05/16 08:24:57;;;;;;;12.70;2.40;;;21.80;99.90;;;;;;5093725;28;20086;-68
2022/05/16 08:27:23;;;;;;;7.18;2.50;;;22.00;99.90;;;;;;5093644;28;20036;-69
2022/05/16 08:29:48;;;;;;;10.48;2.70;;;22.10;99.90;;;;;;5093442;28;20051;-71
2022/05/16 08:32:15;;;;;;;9.32;2.30;;;22.30;99.90;;;;;;5074632;28;20040;-71
2022/05/16 08:34:42;;;;;;;8.35;2.33;;;22.40;99.90;;;;;;5093232;28;20093;-69
2022/05/16 08:39:52;;;;;;;10.95;2.83;;;22.60;99.80;;;;;;5093351;28;20139;-69
2022/05/16 08:42:33;;;;;;;10.05;2.50;;;22.80;99.90;;;;;;5073939;28;20047;-68
2022/05/16 08:45:08;;;;;;;9.65;2.38;;;23.00;99.40;;;;;;5093366;28;20052;-69
2022/05/16 08:47:42;;;;;;;9.45;2.75;;;23.30;99.50;;;;;;5092751;28;20044;-70
2022/05/16 08:50:18;;;;;;;11.82;2.72;;;23.50;99.10;;;;;;5074798;28;20504;-74
2022/05/16 08:53:02;;;;;;;8.13;2.22;;;23.50;98.50;;;;;;5074826;28;20093;-70
2022/05/16 08:55:46;;;;;;;9.93;2.97;;;23.50;98.40;;;;;;5092749;28;20100;-70
2022/05/16 08:58:21;;;;;;;11.98;2.40;;;23.60;98.30;;;;;;5092960;28;20048;-73
2022/05/16 09:00:51;;;;;;;6.63;2.00;;;23.60;98.20;;;;;;5074694;28;20889;-68
2022/05/16 09:03:38;;;;;;;8.95;2.55;;;23.60;97.70;;;;;;5092256;28;20092;-68
2022/05/16 09:06:13;;;;;;;9.18;2.28;;;23.50;97.40;;;;;;5092643;28;20055;-69
2022/05/16 09:08:51;;;;;;;7.97;2.75;;;23.50;97.30;;;;;;5092715;28;20044;-69
2022/05/16 09:11:32;;;;;;;8.00;2.15;;;23.40;96.90;;;;;;5074341;28;20075;-70
2022/05/16 09:14:04;;;;;;;9.57;2.80;;;23.30;97.20;;;;;;5092351;28;20036;-69
2022/05/16 09:16:58;;;;;;;11.02;3.10;;;23.30;97.40;;;;;;5092604;28;20052;-68
2022/05/16 09:19:53;;;;;;;10.65;3.00;;;23.30;96.50;;;;;;5091502;28;20132;-69
2022/05/16 09:22:32;;;;;;;13.50;2.90;;;23.30;97.20;;;;;;5092670;28;20044;-70
2022/05/16 09:25:22;;;;;;;6.53;1.95;;;23.20;96.60;;;;;;5074002;28;20050;-70
2022/05/16 09:30:44;;;;;;;7.43;2.20;;;23.40;96.70;;;;;;5091991;28;20105;-70
2022/05/16 09:33:15;;;;;;;14.77;2.40;;;23.50;96.40;;;;;;5091520;28;20052;-72
2022/05/16 09:36:04;;;;;;;8.65;2.22;;;23.70;96.60;;;;;;5092119;28;20040;-70
2022/05/16 09:38:31;;;;;;;8.98;2.05;;;23.90;96.10;;;;;;5092040;28;20119;-70
2022/05/16 09:41:02;;;;;;;10.77;2.53;;;24.00;96.00;;;;;;5091966;28;20044;-69
2022/05/16 09:43:37;;;;;;;9.07;2.00;;;24.30;95.90;;;;;;5091632;28;20056;-69
2022/05/16 09:46:30;;;;;;;7.72;2.45;;;24.50;95.70;;;;;;5073426;28;20048;-69
2022/05/16 09:49:18;;;;;;;13.25;2.90;;;24.80;95.90;;;;;;4973154;28;20054;-75
2022/05/16 09:51:51;;;;;;;7.25;2.50;;;24.90;94.70;;;;;;4973258;28;20101;-72
2022/05/16 09:54:25;;;;;;;9.40;2.30;;;25.10;94.40;;;;;;4989584;28;20061;-70
2022/05/16 09:57:00;;;;;;;7.47;2.05;;;25.40;95.10;;;;;;4989586;28;20074;-71
2022/05/16 09:59:59;;;;;;;8.18;2.20;;;25.70;94.80;;;;;;4957331;28;20650;-73
2022/05/16 10:02:29;;;;;;;7.20;1.80;;;26.00;93.40;;;;;;4920490;28;20205;-70
2022/05/16 10:05:03;;;;;;;10.55;2.38;;;26.20;93.70;;;;;;4912669;29;20135;-72
2022/05/16 10:07:40;;;;;;;12.02;2.47;;;26.20;91.90;;;;;;4912768;29;20135;-72
2022/05/16 10:10:06;;;;;;;7.53;2.08;;;26.20;92.40;;;;;;4912740;29;20107;-73
2022/05/16 10:12:32;;;;;;;11.07;2.50;;;26.50;92.40;;;;;;4913031;29;20131;-74
2022/05/16 10:14:59;;;;;;;10.18;2.42;;;26.50;91.50;;;;;;4912771;29;20703;-73
2022/05/16 10:17:35;;;;;;;8.23;2.17;;;26.50;90.30;;;;;;4912841;29;20127;-72
2022/05/16 10:20:12;;;;;;;15.82;2.28;;;26.50;87.90;;;;;;4912149;29;20060;-72
2022/05/16 10:22:38;;;;;;;7.40;2.00;;;26.50;87.60;;;;;;4912504;29;20055;-72
2022/05/16 10:25:09;;;;;;;12.52;3.05;;;26.40;86.70;;;;;;4910428;28;20050;-72
2022/05/16 10:27:38;;;;;;;13.00;2.50;;;26.40;87.10;;;;;;5008584;28;20050;-70
2022/05/16 10:30:20;;;;;;;12.57;2.75;;;26.50;86.40;;;;;;5008409;28;20124;-71
2022/05/16 10:33:25;;;;;;;10.70;1.80;;;26.40;84.40;;;;;;4992217;28;20125;-72
2022/05/16 10:35:54;;;;;;;;;;;26.50;84.60;;;;;;5008660;28;20127;-72
2022/05/16 10:38:29;;;;;;;9.25;2.80;;;26.70;86.60;;;;;;5028214;28;19916;-71
2022/05/16 10:40:58;;;;;;;7.07;1.95;;;26.60;85.50;;;;;;5070625;28;20056;-70
2022/05/16 10:43:42;;;;;;;8.77;2.17;;;26.70;86.40;;;;;;5070587;28;20036;-70
2022/05/16 10:46:15;;;;;;;6.55;2.30;;;26.60;84.10;;;;;;5070430;28;20110;-70
2022/05/16 10:48:59;;;;;;;4.88;1.60;;;26.80;85.70;;;;;;5070263;28;20048;-72
2022/05/16 10:51:57;;;;;;;7.97;1.90;;;26.70;83.40;;;;;;5052367;28;20067;-70
2022/05/16 10:54:25;;;;;;;9.25;2.17;;;26.70;84.30;;;;;;5070435;28;20434;-70
2022/05/16 10:57:13;;;;;;;9.00;1.90;;;26.60;83.90;;;;;;5070342;28;20117;-74
2022/05/16 11:00:06;;;;;;;8.40;1.95;;;26.40;82.60;;;;;;5070247;28;20612;-72
2022/05/16 11:02:50;;;;;;;9.05;2.45;;;26.30;82.30;;;;;;5082892;28;20051;-70
2022/05/16 11:05:39;;;;;;;10.73;2.00;;;26.20;82.50;;;;;;5090114;28;20051;-71
2022/05/16 11:08:23;;;;;;;8.23;2.42;;;26.20;83.30;;;;;;5090416;28;20048;-70
2022/05/16 11:11:07;;;;;;;6.93;2.33;;;26.00;83.30;;;;;;5090386;28;20500;-73
2022/05/16 11:13:38;;;;;;;8.93;2.27;;;25.90;83.30;;;;;;5090445;28;20040;-71
2022/05/16 11:16:26;;;;;;;5.80;2.20;;;25.90;83.80;;;;;;5071834;28;20906;-70
2022/05/16 11:18:57;;;;;;;8.25;1.88;;;25.80;84.00;;;;;;5072467;28;20380;-70
2022/05/16 11:21:33;;;;;;;10.30;2.00;;;25.70;83.50;;;;;;5090207;28;20055;-70
2022/05/16 11:24:13;;;;;;;5.97;1.98;;;25.60;84.20;;;;;;5072595;28;20522;-73
2022/05/16 11:26:53;;;;;;;11.32;2.58;;;25.50;83.80;;;;;;5090530;28;20047;-70
2022/05/16 11:29:55;;;;;;;9.60;2.40;;;25.40;83.20;;;;;;5090407;28;20044;-70
2022/05/16 11:32:37;;;;;;;7.57;2.30;;;25.30;84.50;;;;;;5090251;28;20555;-68
2022/05/16 11:35:18;;;;;;;14.63;2.50;;;25.30;85.50;;;;;;5072379;28;20071;-70
2022/05/16 11:38:01;;;;;;;10.15;2.70;;;25.30;88.20;;;;;;5090066;28;20048;-70
2022/05/16 11:40:46;;;;;;;9.23;2.35;;;25.30;87.70;;;;;;5090288;28;20058;-69
2022/05/16 11:43:26;;;;;;;8.43;2.28;;;25.30;89.20;;;;;;5090051;28;20055;-69
2022/05/16 11:46:27;;;;;;;11.93;2.40;;;25.20;91.10;;;;;;5072064;28;20647;-71
2022/05/16 11:49:12;;;;;;;13.85;2.65;;;25.20;91.20;;;;;;5071850;28;20119;-70
2022/05/16 11:52:26;;;;;;;12.88;2.67;;;25.10;91.30;;;;;;5089969;28;20051;-68
2022/05/16 12:01:26;;;;;;;9.60;3.10;;;24.90;90.90;;;;;;4988195;28;20561;-70
2022/05/16 12:04:15;;;;;;;13.02;2.60;;;24.90;91.20;;;;;;4987818;28;20062;-72
2022/05/16 12:06:49;;;;;;;12.25;2.70;;;24.90;91.50;;;;;;4987983;28;20034;-73
2022/05/16 12:09:19;;;;;;;13.13;3.10;;;24.80;91.80;;;;;;4987492;28;20058;-74
2022/05/16 12:11:56;;;;;;;8.07;2.42;;;24.80;92.20;;;;;;4988090;28;20498;-72
2022/05/16 12:14:34;;;;;;;9.63;3.33;;;24.60;92.60;;;;;;4988302;28;20051;-70
2022/05/16 12:17:18;;;;;;;11.75;3.42;;;24.50;93.80;;;;;;4990001;28;20127;-70
2022/05/16 12:19:48;;;;;;;17.45;3.72;;;24.50;93.20;;;;;;4975539;28;20054;-72
2022/05/16 12:22:43;;;;;;;10.65;3.03;;;24.40;93.10;;;;;;4991505;28;20058;-73
2022/05/16 12:25:25;;;;;;;9.77;2.30;;;24.30;93.10;;;;;;4991290;28;20053;-72
2022/05/16 12:28:19;;;;;;;13.77;3.28;;;24.30;93.40;;;;;;5001722;28;20048;-70
2022/05/16 12:30:53;;;;;;;13.40;3.50;;;24.30;93.50;;;;;;5068440;28;20053;-71
2022/05/16 12:33:40;;;;;;;7.88;2.53;;;24.30;93.70;;;;;;5055346;28;20047;-71
2022/05/16 12:36:13;;;;;;;9.80;3.13;;;24.40;93.50;;;;;;5072830;28;20044;-70
2022/05/16 12:38:38;;;;;;;8.85;2.60;;;24.50;93.50;;;;;;5073078;28;20075;-70
2022/05/16 12:41:38;;;;;;;9.82;2.83;;;24.60;94.00;;;;;;5072839;28;20133;-69
2022/05/16 12:44:14;;;;;;;9.27;3.20;;;24.60;94.10;;;;;;5072607;28;20048;-71
2022/05/16 12:47:23;;;;;;;14.13;3.30;;;24.70;95.40;;;;;;5073020;28;20434;-74
2022/05/16 12:50:23;;;;;;;14.50;2.60;;;24.70;94.70;;;;;;5054469;28;20052;-74
2022/05/16 12:53:23;;;;;;;11.32;3.40;;;24.70;94.40;;;;;;5037981;28;20052;-70
2022/05/16 12:56:25;;;;;;;11.00;3.00;;;24.90;95.20;;;;;;5072469;28;20044;-69
2022/05/16 12:59:17;;;;;;;13.43;3.33;;;24.90;95.60;;;;;;5072511;28;20053;-69
2022/05/16 13:01:54;;;;;;;12.38;3.03;;;24.90;95.30;;;;;;5060043;28;20060;-70
2022/05/16 13:04:41;;;;;;;13.10;3.50;;;24.80;95.90;;;;;;5074329;28;20055;-70
2022/05/16 13:07:23;;;;;;;11.75;3.60;;;24.80;96.30;;;;;;5074490;28;20058;-69
2022/05/16 13:10:02;;;;;;;13.93;4.47;;;24.90;95.70;;;;;;5074327;28;20056;-73
2022/05/16 13:12:48;;;;;;;9.88;3.40;;;24.80;96.30;;;;;;5092827;28;20128;-69
2022/05/16 13:15:24;;;;;;;7.13;3.08;;;24.80;96.00;;;;;;5092677;28;20049;-69
2022/05/16 13:17:57;;;;;;;11.77;3.83;;;24.70;96.20;;;;;;5092222;28;20044;-70
2022/05/16 13:20:32;;;;;;;12.20;4.00;;;24.70;96.00;;;;;;5092484;28;20040;-70
2022/05/16 13:22:58;;;;;;;16.33;4.35;;;24.60;98.00;;;;;;5092650;28;20040;-70
2022/05/16 13:25:24;;;;;;;16.13;3.78;;;24.50;97.80;;;;;;5073868;28;20040;-70
2022/05/16 13:30:43;;;;;;;9.73;4.07;;;24.20;97.80;;;;;;5073875;28;20059;-71
2022/05/16 13:33:31;;;;;;;10.70;3.42;;;24.10;97.80;;;;;;5091937;28;20686;-69
2022/05/16 13:36:19;;;;;;;13.20;3.97;;;23.90;98.20;;;;;;5074246;28;20047;-69
2022/05/16 13:38:51;;;;;;;11.70;4.45;;;23.80;98.80;;;;;;5092095;28;20043;-70
2022/05/16 13:41:25;;;;;;;13.10;4.80;;;23.70;99.20;;;;;;5092182;28;20060;-72